sensor_id;sensor_type;location;lat;lon;timestamp;pressure;altitude;pressure_sealevel;temperature;humidity
61128;BME280;47013;42.664;23.242;2023-09-18T00:01:47;94495.44;;;16.40;100.00
61128;BME280;47013;42.664;23.242;2023-09-18T00:04:13;94493.13;;;16.39;100.00
61128;BME280;47013;42.664;23.242;2023-09-18T00:06:38;94484.25;;;16.35;100.00
61128;BME280;47013;42.664;23.242;2023-09-18T00:09:03;94484.34;;;16.31;100.00
61128;BME280;47013;42.664;23.242;2023-09-18T00:11:29;94484.44;;;16.28;100.00
61128;BME280;47013;42.664;23.242;2023-09-18T00:13:54;94486.38;;;16.27;100.00
61128;BME280;47013;42.664;23.242;2023-09-18T00:16:19;94491.06;;;16.27;100.00
61128;BME280;47013;42.664;23.242;2023-09-18T00:18:45;94486.81;;;16.26;100.00
61128;BME280;47013;42.664;23.242;2023-09-18T00:21:11;94484.44;;;16.28;100.00
61128;BME280;47013;42.664;23.242;2023-09-18T00:23:37;94483.63;;;16.27;100.00
61128;BME280;47013;42.664;23.242;2023-09-18T00:26:03;94486.81;;;16.26;100.00
61128;BME280;47013;42.664;23.242;2023-09-18T00:28:28;94482.09;;;16.26;100.00
61128;BME280;47013;42.664;23.242;2023-09-18T00:30:53;94486.81;;;16.26;100.00
61128;BME280;47013;42.664;23.242;2023-09-18T00:33:19;94491.16;;;16.23;100.00
61128;BME280;47013;42.664;23.242;2023-09-18T00:35:48;94489.63;;;16.22;100.00
61128;BME280;47013;42.664;23.242;2023-09-18T00:38:15;94487.00;;;16.18;100.00
61128;BME280;47013;42.664;23.242;2023-09-18T00:40:40;94495.19;;;16.18;100.00
61128;BME280;47013;42.664;23.242;2023-09-18T00:43:06;94483.91;;;16.16;100.00
61128;BME280;47013;42.664;23.242;2023-09-18T00:45:31;94491.00;;;16.14;100.00
61128;BME280;47013;42.664;23.242;2023-09-18T00:47:57;94488.78;;;16.09;100.00
61128;BME280;47013;42.664;23.242;2023-09-18T00:50:23;94493.47;;;16.08;100.00
61128;BME280;47013;42.664;23.242;2023-09-18T00:52:49;94493.22;;;16.03;100.00
61128;BME280;47013;42.664;23.242;2023-09-18T00:55:15;94493.16;;;16.06;100.00
61128;BME280;47013;42.664;23.242;2023-09-18T00:57:41;94497.75;;;16.09;100.00
61128;BME280;47013;42.664;23.242;2023-09-18T01:00:08;94495.28;;;16.15;100.00
61128;BME280;47013;42.664;23.242;2023-09-18T01:02:34;94504.94;;;16.19;100.00
61128;BME280;47013;42.664;23.242;2023-09-18T01:05:00;94503.75;;;16.20;100.00
61128;BME280;47013;42.664;23.242;2023-09-18T01:07:26;94502.44;;;16.25;100.00
61128;BME280;47013;42.664;23.242;2023-09-18T01:09:52;94503.50;;;16.31;100.00
61128;BME280;47013;42.664;23.242;2023-09-18T01:12:23;94504.69;;;16.30;100.00
61128;BME280;47013;42.664;23.242;2023-09-18T01:15:13;94508.78;;;16.22;100.00
61128;BME280;47013;42.664;23.242;2023-09-18T01:17:42;94506.66;;;16.30;100.00
61128;BME280;47013;42.664;23.242;2023-09-18T01:20:11;94498.69;;;16.35;100.00
61128;BME280;47013;42.664;23.242;2023-09-18T01:22:37;94503.22;;;16.42;100.00
61128;BME280;47013;42.664;23.242;2023-09-18T01:25:03;94496.03;;;16.48;100.00
61128;BME280;47013;42.664;23.242;2023-09-18T01:27:28;94496.63;;;16.56;100.00
61128;BME280;47013;42.664;23.242;2023-09-18T01:29:53;94501.91;;;16.63;100.00
61128;BME280;47013;42.664;23.242;2023-09-18T01:32:19;94493.59;;;16.66;100.00
61128;BME280;47013;42.664;23.242;2023-09-18T01:34:49;94497.50;;;16.69;100.00
61128;BME280;47013;42.664;23.242;2023-09-18T01:37:17;94497.94;;;16.67;100.00
61128;BME280;47013;42.664;23.242;2023-09-18T01:39:45;94498.75;;;16.64;100.00
61128;BME280;47013;42.664;23.242;2023-09-18T01:42:12;94502.88;;;16.72;100.00
61128;BME280;47013;42.664;23.242;2023-09-18T01:44:37;94498.50;;;16.75;100.00
61128;BME280;47013;42.664;23.242;2023-09-18T01:47:06;94501.78;;;16.70;100.00
61128;BME280;47013;42.664;23.242;2023-09-18T01:49:32;94505.94;;;16.74;100.00
61128;BME280;47013;42.664;23.242;2023-09-18T01:51:58;94495.75;;;16.75;100.00
61128;BME280;47013;42.664;23.242;2023-09-18T01:54:24;94496.44;;;16.79;100.00
61128;BME280;47013;42.664;23.242;2023-09-18T01:56:50;94495.47;;;16.86;100.00
61128;BME280;47013;42.664;23.242;2023-09-18T01:59:20;94492.66;;;16.89;100.00
61128;BME280;47013;42.664;23.242;2023-09-18T02:01:45;94500.78;;;16.93;100.00
61128;BME280;47013;42.664;23.242;2023-09-18T02:04:11;94504.69;;;16.92;100.00
61128;BME280;47013;42.664;23.242;2023-09-18T02:06:36;94508.66;;;16.91;100.00
61128;BME280;47013;42.664;23.242;2023-09-18T02:09:02;94511.06;;;16.89;100.00
61128;BME280;47013;42.664;23.242;2023-09-18T02:11:33;94506.00;;;16.87;100.00
61128;BME280;47013;42.664;23.242;2023-09-18T02:13:59;94508.31;;;16.89;100.00
61128;BME280;47013;42.664;23.242;2023-09-18T02:16:24;94506.78;;;16.88;100.00
61128;BME280;47013;42.664;23.242;2023-09-18T02:18:54;94516.09;;;16.90;100.00
61128;BME280;47013;42.664;23.242;2023-09-18T02:21:20;94510.72;;;16.87;100.00
61128;BME280;47013;42.664;23.242;2023-09-18T02:23:48;94507.22;;;16.86;100.00
61128;BME280;47013;42.664;23.242;2023-09-18T02:26:13;94514.66;;;16.86;100.00
61128;BME280;47013;42.664;23.242;2023-09-18T02:28:39;94508.50;;;16.82;100.00
61128;BME280;47013;42.664;23.242;2023-09-18T02:31:04;94508.59;;;16.78;100.00
61128;BME280;47013;42.664;23.242;2023-09-18T02:33:30;94507.47;;;16.75;100.00
61128;BME280;47013;42.664;23.242;2023-09-18T02:35:55;94515.78;;;16.72;100.00
61128;BME280;47013;42.664;23.242;2023-09-18T02:38:21;94506.38;;;16.73;100.00
61128;BME280;47013;42.664;23.242;2023-09-18T02:40:46;94500.91;;;16.73;100.00
61128;BME280;47013;42.664;23.242;2023-09-18T02:43:11;94505.59;;;16.72;100.00
61128;BME280;47013;42.664;23.242;2023-09-18T02:45:37;94502.97;;;16.69;100.00
61128;BME280;47013;42.664;23.242;2023-09-18T02:48:02;94506.53;;;16.66;100.00
61128;BME280;47013;42.664;23.242;2023-09-18T02:50:28;94511.19;;;16.69;100.00
61128;BME280;47013;42.664;23.242;2023-09-18T02:52:53;94509.88;;;16.73;100.00
61128;BME280;47013;42.664;23.242;2023-09-18T02:55:19;94517.34;;;16.73;100.00
61128;BME280;47013;42.664;23.242;2023-09-18T02:57:44;94509.44;;;16.75;100.00
61128;BME280;47013;42.664;23.242;2023-09-18T03:00:10;94511.69;;;16.80;100.00
61128;BME280;47013;42.664;23.242;2023-09-18T03:02:35;94515.97;;;16.81;100.00
61128;BME280;47013;42.664;23.242;2023-09-18T03:05:01;94508.84;;;16.84;100.00
61128;BME280;47013;42.664;23.242;2023-09-18T03:07:26;94511.69;;;16.80;100.00
61128;BME280;47013;42.664;23.242;2023-09-18T03:09:54;94522.44;;;16.87;100.00
61128;BME280;47013;42.664;23.242;2023-09-18T03:12:20;94513.69;;;16.92;100.00
61128;BME280;47013;42.664;23.242;2023-09-18T03:14:45;94507.53;;;16.88;100.00
61128;BME280;47013;42.664;23.242;2023-09-18T03:17:12;94506.88;;;16.84;100.00
61128;BME280;47013;42.664;23.242;2023-09-18T03:19:37;94504.03;;;16.88;100.00
61128;BME280;47013;42.664;23.242;2023-09-18T03:22:03;94505.13;;;16.90;100.00
61128;BME280;47013;42.664;23.242;2023-09-18T03:24:28;94501.97;;;16.92;100.00
61128;BME280;47013;42.664;23.242;2023-09-18T03:26:54;94505.41;;;16.96;100.00
61128;BME280;47013;42.664;23.242;2023-09-18T03:29:19;94501.34;;;17.00;100.00
61128;BME280;47013;42.664;23.242;2023-09-18T03:31:44;94499.06;;;16.66;100.00
61128;BME280;47013;42.664;23.242;2023-09-18T03:34:10;94502.00;;;16.59;100.00
61128;BME280;47013;42.664;23.242;2023-09-18T03:36:35;94501.69;;;16.57;100.00
61128;BME280;47013;42.664;23.242;2023-09-18T03:39:01;94498.31;;;16.66;100.00
61128;BME280;47013;42.664;23.242;2023-09-18T03:41:27;94494.66;;;16.72;100.00
61128;BME280;47013;42.664;23.242;2023-09-18T03:43:52;94492.91;;;16.78;100.00
61128;BME280;47013;42.664;23.242;2023-09-18T03:46:17;94487.81;;;16.80;100.00
61128;BME280;47013;42.664;23.242;2023-09-18T03:48:43;94490.09;;;16.82;100.00
61128;BME280;47013;42.664;23.242;2023-09-18T03:51:08;94484.63;;;16.82;100.00
61128;BME280;47013;42.664;23.242;2023-09-18T03:53:35;94486.16;;;16.83;100.00
61128;BME280;47013;42.664;23.242;2023-09-18T03:56:00;94480.00;;;16.79;100.00
61128;BME280;47013;42.664;23.242;2023-09-18T03:58:26;94484.38;;;16.76;100.00
61128;BME280;47013;42.664;23.242;2023-09-18T04:00:52;94486.34;;;16.76;100.00
61128;BME280;47013;42.664;23.242;2023-09-18T04:03:17;94485.56;;;16.75;100.00
61128;BME280;47013;42.664;23.242;2023-09-18T04:05:43;94483.28;;;16.74;100.00
61128;BME280;47013;42.664;23.242;2023-09-18T04:08:08;94478.22;;;16.72;100.00
61128;BME280;47013;42.664;23.242;2023-09-18T04:10:34;94482.50;;;16.73;100.00
61128;BME280;47013;42.664;23.242;2023-09-18T04:13:00;94485.25;;;16.73;100.00
61128;BME280;47013;42.664;23.242;2023-09-18T04:15:25;94485.34;;;16.70;100.00
61128;BME280;47013;42.664;23.242;2023-09-18T04:17:50;94495.19;;;16.67;100.00
61128;BME280;47013;42.664;23.242;2023-09-18T04:20:16;94491.66;;;16.67;100.00
61128;BME280;47013;42.664;23.242;2023-09-18T04:22:46;94492.84;;;16.66;100.00
61128;BME280;47013;42.664;23.242;2023-09-18T04:25:15;94506.53;;;16.66;100.00
61128;BME280;47013;42.664;23.242;2023-09-18T04:27:41;94507.38;;;16.63;100.00
61128;BME280;47013;42.664;23.242;2023-09-18T04:30:07;94511.22;;;16.65;100.00
61128;BME280;47013;42.664;23.242;2023-09-18T04:32:37;94503.41;;;16.67;100.00
61128;BME280;47013;42.664;23.242;2023-09-18T04:35:03;94502.22;;;16.68;100.00
61128;BME280;47013;42.664;23.242;2023-09-18T04:37:30;94506.72;;;16.75;100.00
61128;BME280;47013;42.664;23.242;2023-09-18T04:39:57;94499.94;;;16.79;100.00
61128;BME280;47013;42.664;23.242;2023-09-18T04:42:22;94508.41;;;16.85;100.00
61128;BME280;47013;42.664;23.242;2023-09-18T04:44:48;94509.06;;;16.89;100.00
61128;BME280;47013;42.664;23.242;2023-09-18T04:47:13;94503.94;;;16.91;100.00
61128;BME280;47013;42.664;23.242;2023-09-18T04:49:39;94507.81;;;16.94;100.00
61128;BME280;47013;42.664;23.242;2023-09-18T04:52:04;94510.00;;;16.99;100.00
61128;BME280;47013;42.664;23.242;2023-09-18T04:54:30;94502.00;;;17.04;100.00
61128;BME280;47013;42.664;23.242;2023-09-18T04:56:56;94510.91;;;17.08;100.00
61128;BME280;47013;42.664;23.242;2023-09-18T04:59:21;94508.84;;;17.13;100.00
61128;BME280;47013;42.664;23.242;2023-09-18T05:01:46;94514.22;;;17.16;100.00
61128;BME280;47013;42.664;23.242;2023-09-18T05:04:12;94509.06;;;17.18;100.00
61128;BME280;47013;42.664;23.242;2023-09-18T05:06:38;94509.84;;;17.19;100.00
61128;BME280;47013;42.664;23.242;2023-09-18T05:09:05;94506.31;;;17.18;100.00
61128;BME280;47013;42.664;23.242;2023-09-18T05:11:31;94509.00;;;17.22;100.00
61128;BME280;47013;42.664;23.242;2023-09-18T05:13:56;94504.59;;;17.24;100.00
61128;BME280;47013;42.664;23.242;2023-09-18T05:16:22;94504.84;;;17.30;100.00
61128;BME280;47013;42.664;23.242;2023-09-18T05:18:47;94514.84;;;17.36;100.00
61128;BME280;47013;42.664;23.242;2023-09-18T05:21:12;94521.84;;;17.37;100.00
61128;BME280;47013;42.664;23.242;2023-09-18T05:23:38;94516.91;;;17.32;100.00
61128;BME280;47013;42.664;23.242;2023-09-18T05:26:03;94523.25;;;17.29;100.00
61128;BME280;47013;42.664;23.242;2023-09-18T05:28:30;94522.41;;;17.32;100.00
61128;BME280;47013;42.664;23.242;2023-09-18T05:30:55;94519.56;;;17.36;100.00
61128;BME280;47013;42.664;23.242;2023-09-18T05:33:20;94521.75;;;17.41;100.00
61128;BME280;47013;42.664;23.242;2023-09-18T05:35:46;94520.47;;;17.46;100.00
61128;BME280;47013;42.664;23.242;2023-09-18T05:38:13;94522.66;;;17.51;100.00
61128;BME280;47013;42.664;23.242;2023-09-18T05:40:39;94518.72;;;17.52;100.00
61128;BME280;47013;42.664;23.242;2023-09-18T05:43:05;94525.63;;;17.56;100.00
61128;BME280;47013;42.664;23.242;2023-09-18T05:45:30;94530.25;;;17.59;99.91
61128;BME280;47013;42.664;23.242;2023-09-18T05:47:57;94529.56;;;17.55;100.00
61128;BME280;47013;42.664;23.242;2023-09-18T05:50:29;94536.94;;;17.58;100.00
61128;BME280;47013;42.664;23.242;2023-09-18T05:52:55;94538.53;;;17.43;100.00
61128;BME280;47013;42.664;23.242;2023-09-18T05:55:25;94525.59;;;17.44;100.00
61128;BME280;47013;42.664;23.242;2023-09-18T05:57:51;94529.25;;;17.53;100.00
61128;BME280;47013;42.664;23.242;2023-09-18T06:00:16;94523.13;;;17.62;100.00
61128;BME280;47013;42.664;23.242;2023-09-18T06:02:43;94521.81;;;17.66;99.27
61128;BME280;47013;42.664;23.242;2023-09-18T06:05:09;94525.59;;;17.73;98.95
61128;BME280;47013;42.664;23.242;2023-09-18T06:07:36;94518.28;;;17.66;99.50
61128;BME280;47013;42.664;23.242;2023-09-18T06:10:03;94523.94;;;17.75;99.47
61128;BME280;47013;42.664;23.242;2023-09-18T06:12:28;94525.69;;;17.82;99.23
61128;BME280;47013;42.664;23.242;2023-09-18T06:14:54;94528.53;;;17.78;99.06
61128;BME280;47013;42.664;23.242;2023-09-18T06:17:19;94534.91;;;17.75;99.01
61128;BME280;47013;42.664;23.242;2023-09-18T06:19:45;94535.06;;;17.68;99.39
61128;BME280;47013;42.664;23.242;2023-09-18T06:22:11;94540.72;;;17.77;99.07
61128;BME280;47013;42.664;23.242;2023-09-18T06:24:37;94531.41;;;17.87;99.07
61128;BME280;47013;42.664;23.242;2023-09-18T06:27:03;94530.31;;;17.97;98.52
61128;BME280;47013;42.664;23.242;2023-09-18T06:29:34;94537.44;;;18.08;97.22
61128;BME280;47013;42.664;23.242;2023-09-18T06:32:03;94533.94;;;18.07;96.39
61128;BME280;47013;42.664;23.242;2023-09-18T06:34:28;94536.16;;;18.00;96.22
61128;BME280;47013;42.664;23.242;2023-09-18T06:36:54;94538.97;;;18.09;95.88
61128;BME280;47013;42.664;23.242;2023-09-18T06:39:19;94534.50;;;18.15;95.63
61128;BME280;47013;42.664;23.242;2023-09-18T06:41:47;94539.34;;;18.23;94.73
61128;BME280;47013;42.664;23.242;2023-09-18T06:44:12;94538.56;;;18.23;94.20
61128;BME280;47013;42.664;23.242;2023-09-18T06:46:38;94542.84;;;18.24;94.48
61128;BME280;47013;42.664;23.242;2023-09-18T06:49:04;94539.41;;;18.20;94.23
61128;BME280;47013;42.664;23.242;2023-09-18T06:51:30;94537.34;;;18.24;94.14
61128;BME280;47013;42.664;23.242;2023-09-18T06:53:55;94527.22;;;18.34;93.52
61128;BME280;47013;42.664;23.242;2023-09-18T06:56:25;94537.13;;;18.31;93.72
61128;BME280;47013;42.664;23.242;2023-09-18T06:58:51;94527.13;;;18.37;93.27
61128;BME280;47013;42.664;23.242;2023-09-18T07:01:18;94535.78;;;18.48;93.76
61128;BME280;47013;42.664;23.242;2023-09-18T07:03:45;94539.06;;;18.56;92.36
61128;BME280;47013;42.664;23.242;2023-09-18T07:06:13;94541.50;;;18.67;92.66
61128;BME280;47013;42.664;23.242;2023-09-18T07:08:44;94537.28;;;18.75;91.41
61128;BME280;47013;42.664;23.242;2023-09-18T07:11:10;94534.22;;;18.60;91.73
61128;BME280;47013;42.664;23.242;2023-09-18T07:13:37;94535.34;;;18.63;91.80
61128;BME280;47013;42.664;23.242;2023-09-18T07:16:03;94533.78;;;18.74;91.90
61128;BME280;47013;42.664;23.242;2023-09-18T07:18:28;94542.88;;;18.84;91.78
61128;BME280;47013;42.664;23.242;2023-09-18T07:20:54;94536.09;;;18.76;90.82
61128;BME280;47013;42.664;23.242;2023-09-18T07:23:22;94540.25;;;18.80;90.95
61128;BME280;47013;42.664;23.242;2023-09-18T07:25:48;94539.47;;;18.93;90.45
61128;BME280;47013;42.664;23.242;2023-09-18T07:28:13;94531.94;;;19.06;90.23
61128;BME280;47013;42.664;23.242;2023-09-18T07:30:43;94533.56;;;19.16;89.90
61128;BME280;47013;42.664;23.242;2023-09-18T07:33:12;94538.91;;;19.20;88.33
61128;BME280;47013;42.664;23.242;2023-09-18T07:35:38;94541.84;;;19.25;88.23
61128;BME280;47013;42.664;23.242;2023-09-18T07:38:04;94529.72;;;19.35;88.16
61128;BME280;47013;42.664;23.242;2023-09-18T07:40:30;94525.63;;;19.62;88.13
61128;BME280;47013;42.664;23.242;2023-09-18T07:42:55;94528.44;;;19.71;86.19
61128;BME280;47013;42.664;23.242;2023-09-18T07:45:23;94530.22;;;19.87;84.14
61128;BME280;47013;42.664;23.242;2023-09-18T07:47:49;94534.31;;;20.13;85.01
61128;BME280;47013;42.664;23.242;2023-09-18T07:50:14;94532.56;;;20.38;83.34
61128;BME280;47013;42.664;23.242;2023-09-18T07:52:40;94529.00;;;20.68;82.09
61128;BME280;47013;42.664;23.242;2023-09-18T07:55:05;94527.22;;;20.92;79.83
61128;BME280;47013;42.664;23.242;2023-09-18T07:57:31;94523.56;;;21.14;78.12
61128;BME280;47013;42.664;23.242;2023-09-18T07:59:59;94522.94;;;21.19;77.02
61128;BME280;47013;42.664;23.242;2023-09-18T08:02:32;94522.66;;;21.35;77.20
61128;BME280;47013;42.664;23.242;2023-09-18T08:04:57;94531.06;;;21.59;75.65
61128;BME280;47013;42.664;23.242;2023-09-18T08:07:22;94531.84;;;21.51;75.05
61128;BME280;47013;42.664;23.242;2023-09-18T08:09:48;94526.16;;;21.54;75.71
61128;BME280;47013;42.664;23.242;2023-09-18T08:12:16;94518.03;;;21.60;75.37
61128;BME280;47013;42.664;23.242;2023-09-18T08:14:42;94524.31;;;21.60;75.08
61128;BME280;47013;42.664;23.242;2023-09-18T08:17:07;94523.66;;;21.84;74.42
61128;BME280;47013;42.664;23.242;2023-09-18T08:19:33;94524.84;;;22.01;72.76
61128;BME280;47013;42.664;23.242;2023-09-18T08:21:59;94514.41;;;22.14;71.54
61128;BME280;47013;42.664;23.242;2023-09-18T08:24:29;94515.56;;;22.22;72.05
61128;BME280;47013;42.664;23.242;2023-09-18T08:26:54;94509.59;;;22.57;71.64
61128;BME280;47013;42.664;23.242;2023-09-18T08:29:21;94514.13;;;22.69;69.58
61128;BME280;47013;42.664;23.242;2023-09-18T08:31:47;94509.44;;;22.84;67.97
61128;BME280;47013;42.664;23.242;2023-09-18T08:34:14;94499.97;;;23.00;67.70
61128;BME280;47013;42.664;23.242;2023-09-18T08:36:40;94509.72;;;23.10;65.98
61128;BME280;47013;42.664;23.242;2023-09-18T08:39:05;94508.03;;;23.28;65.89
61128;BME280;47013;42.664;23.242;2023-09-18T08:41:38;94506.91;;;23.34;65.15
61128;BME280;47013;42.664;23.242;2023-09-18T08:44:07;94502.84;;;23.44;64.77
61128;BME280;47013;42.664;23.242;2023-09-18T08:46:34;94493.78;;;23.44;64.23
61128;BME280;47013;42.664;23.242;2023-09-18T08:49:00;94494.06;;;23.46;63.99
61128;BME280;47013;42.664;23.242;2023-09-18T08:51:26;94497.81;;;23.58;63.09
61128;BME280;47013;42.664;23.242;2023-09-18T08:53:53;94489.53;;;23.72;63.03
61128;BME280;47013;42.664;23.242;2023-09-18T08:56:20;94491.13;;;23.94;62.06
61128;BME280;47013;42.664;23.242;2023-09-18T08:58:46;94488.56;;;23.75;61.45
61128;BME280;47013;42.664;23.242;2023-09-18T09:01:12;94487.22;;;23.86;62.52
61128;BME280;47013;42.664;23.242;2023-09-18T09:03:42;94495.06;;;23.87;61.56
61128;BME280;47013;42.664;23.242;2023-09-18T09:06:11;94491.72;;;23.98;61.58
61128;BME280;47013;42.664;23.242;2023-09-18T09:08:36;94483.94;;;24.17;61.29
61128;BME280;47013;42.664;23.242;2023-09-18T09:11:03;94480.41;;;24.31;60.97
61128;BME280;47013;42.664;23.242;2023-09-18T09:13:28;94484.88;;;24.28;58.38
61128;BME280;47013;42.664;23.242;2023-09-18T09:15:56;94487.53;;;24.52;58.15
61128;BME280;47013;42.664;23.242;2023-09-18T09:18:26;94472.50;;;24.79;56.08
61128;BME280;47013;42.664;23.242;2023-09-18T09:21:01;94471.06;;;25.04;55.66
61128;BME280;47013;42.664;23.242;2023-09-18T09:23:30;94467.88;;;24.91;54.07
61128;BME280;47013;42.664;23.242;2023-09-18T09:26:15;94463.28;;;24.88;53.09
61128;BME280;47013;42.664;23.242;2023-09-18T09:28:43;94469.31;;;24.86;52.20
61128;BME280;47013;42.664;23.242;2023-09-18T09:31:09;94467.28;;;24.87;52.88
61128;BME280;47013;42.664;23.242;2023-09-18T09:33:36;94468.13;;;24.93;53.14
61128;BME280;47013;42.664;23.242;2023-09-18T09:36:04;94463.03;;;25.06;51.28
61128;BME280;47013;42.664;23.242;2023-09-18T09:38:32;94461.88;;;24.98;50.37
61128;BME280;47013;42.664;23.242;2023-09-18T09:40:59;94465.56;;;25.10;51.19
61128;BME280;47013;42.664;23.242;2023-09-18T09:43:26;94455.88;;;25.20;52.47
61128;BME280;47013;42.664;23.242;2023-09-18T09:46:01;94455.22;;;25.31;51.06
61128;BME280;47013;42.664;23.242;2023-09-18T09:48:27;94452.31;;;25.19;49.36
61128;BME280;47013;42.664;23.242;2023-09-18T09:50:58;94459.28;;;25.09;48.76
61128;BME280;47013;42.664;23.242;2023-09-18T09:53:46;94451.91;;;25.26;48.94
61128;BME280;47013;42.664;23.242;2023-09-18T09:56:16;94453.06;;;25.40;46.83
61128;BME280;47013;42.664;23.242;2023-09-18T09:59:07;94454.69;;;25.52;47.40
61128;BME280;47013;42.664;23.242;2023-09-18T10:01:37;94449.09;;;25.73;46.84
61128;BME280;47013;42.664;23.242;2023-09-18T10:04:09;94455.50;;;25.84;47.75
61128;BME280;47013;42.664;23.242;2023-09-18T10:06:36;94441.19;;;25.92;47.25
61128;BME280;47013;42.664;23.242;2023-09-18T10:09:03;94450.31;;;25.98;45.76
61128;BME280;47013;42.664;23.242;2023-09-18T10:11:31;94451.59;;;26.02;44.91
61128;BME280;47013;42.664;23.242;2023-09-18T10:14:02;94444.78;;;26.03;45.19
61128;BME280;47013;42.664;23.242;2023-09-18T10:16:30;94441.31;;;26.14;44.55
61128;BME280;47013;42.664;23.242;2023-09-18T10:22:01;94442.44;;;26.65;45.31
61128;BME280;47013;42.664;23.242;2023-09-18T10:24:34;94436.47;;;26.94;44.09
61128;BME280;47013;42.664;23.242;2023-09-18T10:27:06;94429.63;;;26.84;43.26
61128;BME280;47013;42.664;23.242;2023-09-18T10:29:35;94421.84;;;26.99;43.31
61128;BME280;47013;42.664;23.242;2023-09-18T10:32:05;94427.69;;;27.07;42.74
61128;BME280;47013;42.664;23.242;2023-09-18T10:34:33;94411.44;;;26.89;42.91
61128;BME280;47013;42.664;23.242;2023-09-18T10:37:03;94415.88;;;26.64;43.71
61128;BME280;47013;42.664;23.242;2023-09-18T10:39:35;94412.34;;;26.69;43.65
61128;BME280;47013;42.664;23.242;2023-09-18T10:42:02;94407.75;;;27.09;43.31
61128;BME280;47013;42.664;23.242;2023-09-18T10:44:29;94398.19;;;27.38;42.51
61128;BME280;47013;42.664;23.242;2023-09-18T10:46:57;94409.34;;;27.49;40.81
61128;BME280;47013;42.664;23.242;2023-09-18T10:49:24;94407.03;;;27.36;41.40
61128;BME280;47013;42.664;23.242;2023-09-18T10:51:53;94398.25;;;27.66;40.62
61128;BME280;47013;42.664;23.242;2023-09-18T10:54:21;94395.94;;;27.86;39.75
61128;BME280;47013;42.664;23.242;2023-09-18T10:56:48;94392.91;;;27.96;39.62
61128;BME280;47013;42.664;23.242;2023-09-18T10:59:14;94383.28;;;27.91;40.02
61128;BME280;47013;42.664;23.242;2023-09-18T11:01:41;94397.47;;;27.71;39.45
61128;BME280;47013;42.664;23.242;2023-09-18T11:04:08;94390.09;;;27.56;39.48
61128;BME280;47013;42.664;23.242;2023-09-18T11:09:21;94379.44;;;27.32;39.96
61128;BME280;47013;42.664;23.242;2023-09-18T11:11:54;94375.41;;;27.39;39.93
61128;BME280;47013;42.664;23.242;2023-09-18T11:14:44;94383.47;;;27.26;39.68
61128;BME280;47013;42.664;23.242;2023-09-18T11:17:32;94371.59;;;27.42;39.66
61128;BME280;47013;42.664;23.242;2023-09-18T11:22:56;94370.09;;;27.97;39.67
61128;BME280;47013;42.664;23.242;2023-09-18T11:25:40;94365.28;;;28.14;37.78
61128;BME280;47013;42.664;23.242;2023-09-18T11:28:23;94363.75;;;28.08;38.05
61128;BME280;47013;42.664;23.242;2023-09-18T11:30:50;94364.53;;;27.97;38.38
61128;BME280;47013;42.664;23.242;2023-09-18T11:33:36;94358.72;;;27.84;38.67
61128;BME280;47013;42.664;23.242;2023-09-18T11:36:29;94362.25;;;27.90;38.98
61128;BME280;47013;42.664;23.242;2023-09-18T11:38:57;94346.53;;;27.53;39.10
61128;BME280;47013;42.664;23.242;2023-09-18T11:41:35;94347.03;;;27.57;39.01
61128;BME280;47013;42.664;23.242;2023-09-18T11:46:38;94346.56;;;27.70;38.79
61128;BME280;47013;42.664;23.242;2023-09-18T11:49:06;94347.06;;;27.80;38.51
61128;BME280;47013;42.664;23.242;2023-09-18T11:51:32;94337.19;;;27.73;38.82
61128;BME280;47013;42.664;23.242;2023-09-18T11:53:58;94336.16;;;27.48;39.05
61128;BME280;47013;42.664;23.242;2023-09-18T11:56:24;94348.56;;;27.25;39.65
61128;BME280;47013;42.664;23.242;2023-09-18T11:58:51;94345.13;;;26.82;39.58
61128;BME280;47013;42.664;23.242;2023-09-18T12:01:20;94335.56;;;26.99;39.70
61128;BME280;47013;42.664;23.242;2023-09-18T12:03:55;94341.22;;;27.22;39.86
61128;BME280;47013;42.664;23.242;2023-09-18T12:06:21;94332.09;;;27.44;39.13
61128;BME280;47013;42.664;23.242;2023-09-18T12:08:46;94333.63;;;27.56;39.34
61128;BME280;47013;42.664;23.242;2023-09-18T12:11:12;94329.06;;;27.86;39.21
61128;BME280;47013;42.664;23.242;2023-09-18T12:13:42;94328.53;;;27.99;38.19
61128;BME280;47013;42.664;23.242;2023-09-18T12:16:08;94330.06;;;28.00;38.15
61128;BME280;47013;42.664;23.242;2023-09-18T12:18:35;94329.28;;;28.05;37.36
61128;BME280;47013;42.664;23.242;2023-09-18T12:21:05;94323.97;;;27.96;36.86
61128;BME280;47013;42.664;23.242;2023-09-18T12:23:39;94326.03;;;27.45;37.67
61128;BME280;47013;42.664;23.242;2023-09-18T12:26:05;94319.19;;;27.52;37.77
61128;BME280;47013;42.664;23.242;2023-09-18T12:28:33;94322.22;;;27.59;37.91
61128;BME280;47013;42.664;23.242;2023-09-18T12:31:00;94327.31;;;27.50;38.12
61128;BME280;47013;42.664;23.242;2023-09-18T12:33:33;94326.31;;;27.70;38.17
61128;BME280;47013;42.664;23.242;2023-09-18T12:36:03;94325.03;;;27.87;38.14
61128;BME280;47013;42.664;23.242;2023-09-18T12:38:30;94326.50;;;28.05;37.11
61128;BME280;47013;42.664;23.242;2023-09-18T12:40:56;94317.66;;;27.84;37.83
61128;BME280;47013;42.664;23.242;2023-09-18T12:43:25;94314.13;;;28.01;38.26
61128;BME280;47013;42.664;23.242;2023-09-18T12:45:56;94311.78;;;28.16;38.01
61128;BME280;47013;42.664;23.242;2023-09-18T12:48:21;94313.31;;;28.06;38.83
61128;BME280;47013;42.664;23.242;2023-09-18T12:50:52;94315.94;;;27.65;39.33
61128;BME280;47013;42.664;23.242;2023-09-18T12:53:22;94312.09;;;27.84;39.33
61128;BME280;47013;42.664;23.242;2023-09-18T12:55:48;94301.72;;;27.57;39.89
61128;BME280;47013;42.664;23.242;2023-09-18T12:58:18;94311.59;;;27.13;40.82